Oasis, Iowa
Current Conditions -  °F | °C
As of 4:52 AM on Friday 28 Nov 2014 (Local Time) from KIOW Reporting Station
Clear Clear  
Wind Chill:   Ceiling: Unl
Heat Index: 14°   Visibility: 10mi
Dew Point:   Wind: 7mph
Humidity: 74%   Direction: 120°ESE
Pressure: 30.22"   Gusts: NA
Location:  41.6714°N, 91.2723°W
Report Text: KIOW 281052Z AUTO 12006KT 10SM CLR M10/M14 A3022 RMK AO2 SLP248 T11001139
Loading
Personal Weather Stations






























Interactive Weather Map New forecast layout! Learn more

10-Day Weather Forecast

Advertisements
Track Severe Weather on mobile